River Oaks, Texas
Current Conditions -  °F | °C
As of 1:52 PM on Friday 24 Oct 2014 (Local Time) from KNFW Reporting Station
Clear Clear  
Wind Chill: 87°   Ceiling: Unl
Heat Index: 87°   Visibility: 10mi
Dew Point: 60°   Wind: 8mph
Humidity: 40%   Direction: 160°SSE
Pressure: 30.14"   Gusts: NA
Location:  32.7763°N, 97.4092°W
Report Text: KNFW 241852Z 16007KT 10SM CLR 31/16 A3014 RMK AO2 SLP189 T03060156 CHINO N VISNO N $
Loading
Personal Weather Stations






























Interactive Weather Map
Tropical Storm Tracking
New forecast layout! Learn more

10-Day Weather Forecast

Advertisements
Track Severe Weather on mobile